Time;durP1;ratioP1;P1;durP2;ratioP2;P2;SDS_P1;SDS_P2;PMS_P1;PMS_P2;Temp;Humidity;BMP_temperature;BMP_pressure;BME280_temperature;BME280_humidity;BME280_pressure;Samples;Min_cycle;Max_cycle;Signal;HPM_P1;HPM_P2
2023/05/15 00:00:14;;;;;;;4.55;2.70;;;;;;;15.87;58.98;99022.75;4938381;29;20122;-87
2023/05/15 00:02:40;;;;;;;9.20;3.15;;;;;;;15.80;58.97;99002.44;4938452;29;20051;-87
2023/05/15 00:05:07;;;;;;;4.43;2.92;;;;;;;15.83;59.01;99005.59;4906628;29;20102;-86
2023/05/15 00:07:33;;;;;;;3.78;2.90;;;;;;;15.81;59.04;99009.34;4938409;29;20038;-86
2023/05/15 00:09:58;;;;;;;3.95;2.70;;;;;;;15.84;59.02;99011.69;4912511;29;20039;-86
2023/05/15 00:12:24;;;;;;;3.65;2.70;;;;;;;15.83;58.95;99007.38;4947228;29;20042;-86
2023/05/15 00:14:49;;;;;;;3.83;2.65;;;;;;;15.81;58.90;98997.00;4946995;29;20406;-86
2023/05/15 00:17:15;;;;;;;4.35;2.78;;;;;;;15.79;58.99;98995.50;4945890;29;20043;-85
2023/05/15 00:19:41;;;;;;;8.73;2.95;;;;;;;15.81;58.77;98991.72;4945650;29;20055;-84
2023/05/15 00:22:07;;;;;;;9.00;3.20;;;;;;;15.79;58.99;98988.41;4938609;29;20043;-83
2023/05/15 00:24:33;;;;;;;3.60;2.67;;;;;;;15.78;58.92;98978.03;4906485;29;20040;-84
2023/05/15 00:26:59;;;;;;;6.72;2.70;;;;;;;15.81;58.89;98977.75;4955081;29;20122;-84
2023/05/15 00:29:24;;;;;;;7.70;3.38;;;;;;;15.79;58.95;98980.53;4922702;29;20139;-83
2023/05/15 00:31:50;;;;;;;4.30;2.90;;;;;;;15.76;58.88;98974.69;4906769;29;20051;-83
2023/05/15 00:34:15;;;;;;;6.57;2.70;;;;;;;15.78;59.03;98971.00;4922471;29;20074;-83
2023/05/15 00:36:41;;;;;;;4.93;3.08;;;;;;;15.78;58.79;98973.63;4955221;29;20050;-83
2023/05/15 00:39:06;;;;;;;4.32;2.80;;;;;;;15.79;58.84;98975.25;4937991;29;20110;-83
2023/05/15 00:41:32;;;;;;;4.70;2.90;;;;;;;15.79;58.82;98977.91;4922126;29;20035;-83
2023/05/15 00:43:59;;;;;;;5.80;2.80;;;;;;;15.78;58.85;98978.88;4902966;29;20048;-84
2023/05/15 00:46:26;;;;;;;5.80;2.70;;;;;;;15.79;58.98;98979.72;4919230;29;20032;-83
2023/05/15 00:48:52;;;;;;;5.00;2.85;;;;;;;15.78;59.00;98970.13;4934485;29;20048;-83
2023/05/15 00:51:17;;;;;;;6.03;2.95;;;;;;;15.79;58.84;98983.16;4934906;29;20080;-83
2023/05/15 00:53:43;;;;;;;4.53;2.88;;;;;;;15.73;58.97;98987.19;4934517;29;20094;-83
2023/05/15 00:56:09;;;;;;;5.00;3.00;;;;;;;15.72;58.98;98982.88;4934772;29;20043;-82
2023/05/15 00:58:35;;;;;;;4.53;2.90;;;;;;;15.75;59.13;98979.13;4919353;29;20134;-82
2023/05/15 01:01:01;;;;;;;9.35;3.08;;;;;;;15.72;59.04;98979.44;4918665;29;20099;-82
2023/05/15 01:03:27;;;;;;;3.90;2.90;;;;;;;15.71;59.07;98983.84;4902574;29;20040;-83
2023/05/15 01:05:53;;;;;;;3.80;2.50;;;;;;;15.73;58.82;98981.06;4918645;29;20566;-83
2023/05/15 01:08:26;;;;;;;3.25;2.60;;;;;;;15.70;58.97;98979.56;4918011;29;20047;-82
2023/05/15 01:10:52;;;;;;;4.07;2.85;;;;;;;15.68;58.77;98960.44;4919622;29;20050;-82
2023/05/15 01:13:21;;;;;;;4.65;2.60;;;;;;;15.66;58.86;98959.78;4935528;29;20114;-82
2023/05/15 01:15:48;;;;;;;6.80;2.78;;;;;;;15.65;58.93;98968.63;4934231;29;20032;-81
2023/05/15 01:18:13;;;;;;;3.15;2.55;;;;;;;15.66;58.94;98966.84;4918614;29;20043;-81
2023/05/15 01:20:45;;;;;;;3.13;2.50;;;;;;;15.60;59.18;98951.63;4934651;29;20044;-81
2023/05/15 01:23:23;;;;;;;3.85;2.78;;;;;;;15.61;58.86;98953.25;4933984;29;20039;-82
2023/05/15 01:26:23;;;;;;;6.20;3.22;;;;;;;15.61;58.91;98956.75;4918977;29;20039;-82
2023/05/15 01:28:54;;;;;;;6.68;2.90;;;;;;;15.58;58.87;98954.41;4935253;29;20043;-82
2023/05/15 01:31:20;;;;;;;5.80;2.83;;;;;;;15.56;58.96;98940.56;4918938;29;20131;-82
2023/05/15 01:33:46;;;;;;;5.07;3.05;;;;;;;15.54;58.92;98927.56;4902724;29;20067;-82
2023/05/15 01:36:34;;;;;;;4.97;3.00;;;;;;;15.53;58.98;98920.63;4918515;29;20035;-82
2023/05/15 01:39:01;;;;;;;7.50;3.00;;;;;;;15.50;58.83;98913.03;4933710;29;20122;-83
2023/05/15 01:41:48;;;;;;;8.05;2.80;;;;;;;15.50;58.78;98912.22;4933764;29;20487;-84
2023/05/15 01:44:16;;;;;;;3.75;2.63;;;;;;;15.48;58.84;98907.09;4902693;29;20043;-84
2023/05/15 01:46:44;;;;;;;5.45;3.03;;;;;;;15.46;58.73;98913.44;4921319;29;20053;-84
2023/05/15 01:49:10;;;;;;;5.53;3.00;;;;;;;15.42;58.84;98906.81;4924418;29;20036;-84
2023/05/15 01:51:36;;;;;;;4.55;2.80;;;;;;;15.45;58.80;98906.53;4924905;29;20052;-84
2023/05/15 01:54:01;;;;;;;4.45;2.78;;;;;;;15.42;58.81;98897.13;4924353;29;20035;-84
2023/05/15 01:56:27;;;;;;;6.25;2.95;;;;;;;15.41;58.80;98907.81;4924622;29;20527;-84
2023/05/15 01:58:53;;;;;;;9.07;2.90;;;;;;;15.40;58.80;98899.06;4940445;29;20110;-84
2023/05/15 02:01:18;;;;;;;7.03;3.15;;;;;;;15.39;58.51;98894.78;4924304;29;20050;-84
2023/05/15 02:03:44;;;;;;;4.32;2.80;;;;;;;15.32;58.62;98881.41;4940245;29;20138;-85
2023/05/15 02:06:10;;;;;;;3.72;2.83;;;;;;;15.36;58.56;98901.16;4924128;29;20039;-83
2023/05/15 02:08:35;;;;;;;4.70;2.88;;;;;;;15.33;58.70;98905.88;4924618;29;20035;-83
2023/05/15 02:11:01;;;;;;;4.25;2.97;;;;;;;15.35;58.83;98919.72;4940286;29;20055;-82
2023/05/15 02:13:26;;;;;;;4.00;3.08;;;;;;;15.35;58.85;98922.34;4924165;29;20035;-82
2023/05/15 02:15:52;;;;;;;5.05;3.13;;;;;;;15.30;58.73;98928.03;4939944;29;20511;-82
2023/05/15 02:18:17;;;;;;;5.10;3.33;;;;;;;15.27;58.73;98924.88;4907961;29;20047;-83
2023/05/15 02:20:43;;;;;;;4.47;3.00;;;;;;;15.29;58.74;98915.03;4908345;29;20518;-83
2023/05/15 02:23:08;;;;;;;4.20;3.10;;;;;;;15.27;58.69;98909.91;4908039;29;20055;-82
2023/05/15 02:25:54;;;;;;;3.78;2.92;;;;;;;15.32;58.87;98910.31;4924176;29;20039;-82
2023/05/15 02:28:27;;;;;;;6.70;3.20;;;;;;;15.31;58.86;98900.75;4924357;29;20047;-82
2023/05/15 02:30:59;;;;;;;4.45;3.22;;;;;;;15.30;58.85;98914.88;4940015;29;20407;-82
2023/05/15 02:33:40;;;;;;;5.63;3.40;;;;;;;15.28;58.87;98900.22;4924135;29;20035;-83
2023/05/15 02:36:06;;;;;;;6.15;3.15;;;;;;;15.26;59.00;98889.84;4923909;29;20040;-83
2023/05/15 02:38:52;;;;;;;3.97;2.97;;;;;;;15.29;58.97;98905.34;4908815;29;20134;-83
2023/05/15 02:41:18;;;;;;;4.43;2.65;;;;;;;15.29;58.80;98913.25;4939306;29;20126;-83
2023/05/15 02:43:43;;;;;;;5.22;3.25;;;;;;;15.25;58.85;98897.88;4923143;29;20139;-77
2023/05/15 02:46:09;;;;;;;4.15;3.05;;;;;;;15.29;58.70;98900.09;4924067;29;20447;-76
2023/05/15 02:48:36;;;;;;;5.35;3.10;;;;;;;15.28;58.86;98897.59;4907953;29;20044;-83
2023/05/15 02:51:02;;;;;;;3.97;3.05;;;;;;;15.29;58.90;98899.25;4923688;29;20418;-82
2023/05/15 02:53:27;;;;;;;4.28;3.08;;;;;;;15.27;58.81;98891.50;4923343;29;20043;-86
2023/05/15 02:55:53;;;;;;;5.53;3.35;;;;;;;15.30;58.66;98885.94;4939655;29;20040;-84
2023/05/15 02:58:18;;;;;;;5.07;3.00;;;;;;;15.32;58.62;98878.75;4936674;29;20063;-85
2023/05/15 03:00:44;;;;;;;3.40;2.75;;;;;;;15.34;58.77;98873.34;4905033;29;20043;-87
2023/05/15 03:03:10;;;;;;;4.65;3.10;;;;;;;15.34;58.60;98868.09;4936731;29;20408;-84
2023/05/15 03:05:36;;;;;;;4.82;3.00;;;;;;;15.30;58.48;98869.34;4936741;29;20036;-85
2023/05/15 03:08:02;;;;;;;4.70;2.90;;;;;;;15.34;58.46;98876.00;4920565;29;20047;-82
2023/05/15 03:10:27;;;;;;;4.05;3.10;;;;;;;15.33;58.49;98880.41;4937599;29;20051;-79
2023/05/15 03:12:57;;;;;;;3.97;3.00;;;;;;;15.34;58.46;98876.00;4904712;29;20047;-80
2023/05/15 03:15:22;;;;;;;5.15;3.33;;;;;;;15.37;58.23;98887.03;4936326;29;20558;-80
2023/05/15 03:17:48;;;;;;;3.55;2.53;;;;;;;15.51;64.27;98866.50;4920599;29;20078;-67
2023/05/15 03:20:13;;;;;;;3.40;2.28;;;;;;;15.83;65.59;98874.00;4937193;29;20048;-81
2023/05/15 03:22:40;;;;;;;3.25;2.38;;;;;;;15.84;63.54;98869.53;4904742;29;20126;-82
2023/05/15 03:25:06;;;;;;;9.30;2.80;;;;;;;15.84;62.72;98874.81;4920385;29;20047;-84
2023/05/15 03:27:32;;;;;;;9.38;2.60;;;;;;;15.83;61.80;98881.88;4936862;29;20039;-84
2023/05/15 03:29:57;;;;;;;3.65;2.50;;;;;;;15.82;61.35;98889.94;4936024;29;20039;-88
2023/05/15 03:32:23;;;;;;;4.70;2.63;;;;;;;15.85;61.99;98900.16;4937558;29;20119;-85
2023/05/15 03:34:48;;;;;;;4.53;3.00;;;;;;;15.89;61.12;98890.97;4937094;29;20032;-89
2023/05/15 03:37:14;;;;;;;3.78;2.70;;;;;;;15.88;60.79;98878.81;4935803;29;20075;-85
2023/05/15 03:39:39;;;;;;;3.72;2.60;;;;;;;15.87;60.31;98867.44;4936657;29;20528;-88
2023/05/15 03:42:05;;;;;;;8.63;3.10;;;;;;;15.84;60.02;98867.72;4936355;29;20043;-87
2023/05/15 03:44:32;;;;;;;5.47;3.10;;;;;;;15.89;59.84;98877.81;4953801;29;20055;-85
2023/05/15 03:46:57;;;;;;;8.13;2.85;;;;;;;15.98;59.38;98881.38;4923064;29;20554;-84
2023/05/15 03:49:23;;;;;;;3.88;2.80;;;;;;;16.07;58.88;98860.25;4961399;28;20039;-82
2023/05/15 03:51:49;;;;;;;4.90;2.92;;;;;;;16.22;58.26;98870.25;4955702;29;20036;-78
2023/05/15 03:54:15;;;;;;;5.50;2.70;;;;;;;16.51;62.22;98890.28;4922856;29;20524;-75
2023/05/15 03:56:40;;;;;;;10.57;2.70;;;;;;;16.71;59.64;98899.69;4938653;29;20039;-75
2023/05/15 03:59:06;;;;;;;11.48;2.92;;;;;;;17.10;58.09;98907.25;4922593;29;20474;-76
2023/05/15 04:01:31;;;;;;;6.78;2.60;;;;;;;17.87;58.57;98906.50;4924157;29;20047;-68
2023/05/15 04:03:57;;;;;;;4.60;2.60;;;;;;;18.40;58.05;98907.13;4955518;29;20043;-73
2023/05/15 04:06:22;;;;;;;16.38;2.97;;;;;;;18.70;55.64;98904.84;4922212;29;20043;-73
2023/05/15 04:08:48;;;;;;;4.82;2.33;;;;;;;18.81;54.37;98905.34;4922545;28;20043;-79
2023/05/15 04:11:15;;;;;;;4.35;2.60;;;;;;;19.20;53.15;98892.41;4938159;29;20054;-77
2023/05/15 04:13:40;;;;;;;3.85;2.45;;;;;;;19.29;52.11;98880.81;4922198;29;20198;-75
2023/05/15 04:16:06;;;;;;;4.38;2.78;;;;;;;19.40;51.62;98888.41;4937889;29;20043;-78
2023/05/15 04:18:32;;;;;;;3.63;2.63;;;;;;;19.39;51.30;98877.97;4955449;29;20134;-76
2023/05/15 04:20:57;;;;;;;4.13;2.72;;;;;;;19.36;50.72;98873.88;4922178;29;20558;-76
2023/05/15 04:23:23;;;;;;;6.10;2.60;;;;;;;19.27;50.87;98883.63;4922074;29;20077;-76
2023/05/15 04:25:48;;;;;;;4.15;2.58;;;;;;;19.12;51.06;98874.78;4937812;29;20043;-76
2023/05/15 04:28:14;;;;;;;5.85;3.13;;;;;;;19.01;51.20;98870.66;4921929;29;20043;-76
2023/05/15 04:30:39;;;;;;;6.78;2.72;;;;;;;18.81;51.58;98870.13;4922256;29;20035;-77
2023/05/15 04:33:05;;;;;;;7.82;3.42;;;;;;;18.71;51.88;98880.06;4921439;29;20102;-77
2023/05/15 04:35:30;;;;;;;4.88;3.05;;;;;;;18.61;52.21;98867.00;4937933;29;20043;-77
2023/05/15 04:37:56;;;;;;;4.40;2.80;;;;;;;18.53;52.29;98861.72;4937608;29;20047;-77
2023/05/15 04:40:21;;;;;;;4.50;2.80;;;;;;;18.49;52.32;98871.81;4955124;29;20055;-78
2023/05/15 04:42:47;;;;;;;3.20;2.67;;;;;;;18.47;52.22;98883.53;4953207;29;20062;-77
2023/05/15 04:45:13;;;;;;;7.00;3.13;;;;;;;18.55;51.99;98897.59;4937956;29;20578;-75
2023/05/15 04:47:39;;;;;;;5.78;2.88;;;;;;;18.71;51.89;98898.59;4937652;28;20054;-76
2023/05/15 04:50:05;;;;;;;4.65;2.80;;;;;;;18.61;51.77;98875.78;4921806;29;20035;-76
2023/05/15 04:52:31;;;;;;;5.30;3.03;;;;;;;18.89;51.06;98886.03;4920916;29;20145;-78
2023/05/15 04:54:56;;;;;;;3.75;2.72;;;;;;;19.57;49.42;98881.22;4921245;29;20111;-78
2023/05/15 04:57:22;;;;;;;4.13;2.92;;;;;;;20.15;47.84;98870.41;4937070;29;20047;-80
2023/05/15 04:59:48;;;;;;;4.22;2.95;;;;;;;21.62;44.11;98865.59;4905915;29;20074;-76
2023/05/15 05:02:13;;;;;;;4.40;2.55;;;;;;;22.87;41.30;98868.91;4924610;29;20045;-82
2023/05/15 05:04:44;;;;;;;7.45;2.63;;;;;;;22.43;42.34;98879.78;4923474;29;20039;-83
2023/05/15 05:07:11;;;;;;;4.50;2.70;;;;;;;22.15;42.77;98883.16;4924715;29;20427;-85
2023/05/15 05:09:38;;;;;;;7.20;2.88;;;;;;;21.90;42.91;98880.84;4906380;29;20399;-81
2023/05/15 05:12:04;;;;;;;4.45;3.15;;;;;;;21.66;43.43;98893.44;4937358;29;20530;-81
2023/05/15 05:14:35;;;;;;;5.25;2.80;;;;;;;21.44;43.43;98895.16;4922733;29;20090;-84
2023/05/15 05:17:00;;;;;;;4.70;3.03;;;;;;;21.20;43.59;98871.53;4939009;29;20509;-80
2023/05/15 05:19:27;;;;;;;5.60;2.90;;;;;;;21.04;43.98;98867.22;4940192;29;20047;-81
2023/05/15 05:21:53;;;;;;;3.65;2.83;;;;;;;20.96;43.72;98873.41;4944743;29;20047;-85
2023/05/15 05:24:19;;;;;;;4.18;2.45;;;;;;;20.96;46.86;98873.41;4931205;29;20035;-72
2023/05/15 05:26:47;;;;;;;7.25;2.33;;;;;;;20.90;47.90;98882.91;4949467;29;20050;-86
2023/05/15 05:29:12;;;;;;;3.30;2.38;;;;;;;20.78;47.86;98873.75;4939913;29;20027;-92
2023/05/15 05:31:38;;;;;;;8.63;2.80;;;;;;;20.74;47.02;98885.72;4960307;28;20055;-90
2023/05/15 05:34:03;;;;;;;6.32;2.58;;;;;;;20.77;46.93;98891.47;4945488;29;20043;-91
2023/05/15 05:36:28;;;;;;;7.97;2.95;;;;;;;20.81;46.20;98891.13;5107423;23;20030;-89
2023/05/15 05:38:54;;;;;;;7.13;2.80;;;;;;;21.03;45.23;98897.41;4994337;28;20714;-85
2023/05/15 05:41:20;;;;;;;4.43;2.67;;;;;;;20.93;46.83;98890.50;4953092;28;20038;-88
2023/05/15 05:43:46;;;;;;;3.80;2.70;;;;;;;20.87;45.35;98888.56;4975158;28;20425;-90
2023/05/15 05:46:12;;;;;;;9.15;2.90;;;;;;;20.88;44.90;98887.59;4973038;28;20042;-84
2023/05/15 05:48:38;;;;;;;6.35;2.72;;;;;;;20.90;43.81;98892.72;4977491;28;20042;-87
2023/05/15 05:51:07;;;;;;;5.32;2.72;;;;;;;20.66;43.41;98883.97;4950220;23;20564;-90
2023/05/15 05:53:33;;;;;;;;;;;;;;;20.71;43.40;98894.84;4951302;28;20086;-85
2023/05/15 05:55:59;;;;;;;8.00;2.58;;;;;;;20.67;43.31;98898.88;4973984;28;19925;-87
2023/05/15 05:58:27;;;;;;;6.60;2.67;;;;;;;20.59;43.22;98890.97;4956565;29;20403;-88
2023/05/15 06:00:55;;;;;;;4.80;2.30;;;;;;;20.98;42.78;98894.47;4939129;29;20071;-90
2023/05/15 06:03:21;;;;;;;5.22;2.60;;;;;;;21.06;42.33;98886.41;4938054;29;20035;-89
2023/05/15 06:05:47;;;;;;;6.10;2.22;;;;;;;21.35;41.64;98890.94;4950675;29;20050;-86
2023/05/15 06:08:13;;;;;;;7.95;2.75;;;;;;;21.53;40.65;98889.78;4910938;29;20043;-79
2023/05/15 06:10:38;;;;;;;14.60;2.45;;;;;;;21.61;44.11;98893.16;4937502;29;20447;-76
2023/05/15 06:13:04;;;;;;;9.15;2.70;;;;;;;21.62;43.39;98889.50;4921406;29;20043;-77
2023/05/15 06:15:29;;;;;;;4.88;2.70;;;;;;;21.57;42.86;98888.38;4920592;29;20043;-77
2023/05/15 06:17:55;;;;;;;6.00;2.78;;;;;;;21.52;42.19;98894.25;4921358;29;20063;-76
2023/05/15 06:20:21;;;;;;;5.13;2.55;;;;;;;21.62;41.79;98888.69;4920661;29;20118;-77
2023/05/15 06:22:47;;;;;;;4.80;2.47;;;;;;;21.83;41.02;98886.06;4920805;29;20118;-76
2023/05/15 06:25:13;;;;;;;4.65;2.60;;;;;;;21.89;41.20;98891.66;4903400;29;20050;-79
2023/05/15 06:27:39;;;;;;;9.77;2.45;;;;;;;21.83;40.99;98894.03;4936940;29;20046;-79
2023/05/15 06:30:07;;;;;;;5.35;2.53;;;;;;;21.84;40.81;98902.84;4905097;29;20039;-78
2023/05/15 06:32:33;;;;;;;6.35;2.25;;;;;;;21.90;40.32;98898.59;4937671;29;20046;-78
2023/05/15 06:34:58;;;;;;;4.78;2.58;;;;;;;21.91;40.35;98897.59;4924498;29;20031;-77
2023/05/15 06:37:24;;;;;;;4.85;2.30;;;;;;;21.97;39.75;98900.34;4924720;29;20114;-78
2023/05/15 06:39:51;;;;;;;4.13;2.50;;;;;;;22.05;39.54;98907.38;4925379;29;20098;-79
2023/05/15 06:42:16;;;;;;;4.55;2.30;;;;;;;22.21;38.73;98901.00;4925559;29;20051;-78
2023/05/15 06:44:42;;;;;;;9.90;2.20;;;;;;;22.21;38.80;98885.06;4925104;29;20039;-79
2023/05/15 06:47:10;;;;;;;10.80;2.38;;;;;;;22.29;38.64;98895.56;4926558;29;20426;-82
2023/05/15 06:49:36;;;;;;;4.03;2.30;;;;;;;22.33;38.32;98883.59;4927944;29;20039;-77
2023/05/15 06:52:01;;;;;;;7.53;2.35;;;;;;;22.34;37.99;98879.88;4906179;29;20424;-78
2023/05/15 06:54:28;;;;;;;5.03;2.22;;;;;;;22.36;37.93;98885.03;4904938;29;20052;-83
2023/05/15 06:56:53;;;;;;;4.15;2.28;;;;;;;22.30;38.40;98894.59;4903627;29;20079;-82
2023/05/15 06:59:21;;;;;;;10.32;2.65;;;;;;;22.26;38.13;98881.84;4904437;29;20040;-82
2023/05/15 07:01:47;;;;;;;3.78;2.40;;;;;;;22.23;37.98;98880.38;4919100;29;20052;-82
2023/05/15 07:04:13;;;;;;;6.78;2.50;;;;;;;22.26;38.17;98873.84;4903518;29;20523;-82
2023/05/15 07:06:38;;;;;;;7.03;2.10;;;;;;;22.14;38.30;98878.84;4888276;29;20079;-83
2023/05/15 07:09:03;;;;;;;5.93;2.33;;;;;;;;;;4921161;29;20127;-82
2023/05/15 07:11:29;;;;;;;3.45;2.40;;;;;;;22.07;38.49;98883.28;4920046;29;20036;-81
2023/05/15 07:13:55;;;;;;;3.20;2.17;;;;;;;21.90;38.76;98864.91;4906424;29;20046;-82
2023/05/15 07:16:20;;;;;;;5.55;2.20;;;;;;;21.80;38.94;98867.03;4889150;29;20051;-83
2023/05/15 07:18:46;;;;;;;3.50;2.20;;;;;;;21.69;39.08;98868.31;4889315;29;20482;-83
2023/05/15 07:21:12;;;;;;;5.50;2.20;;;;;;;21.76;39.34;98871.91;4890221;29;20411;-83
2023/05/15 07:23:37;;;;;;;3.17;2.17;;;;;;;21.79;39.33;98873.34;4906546;29;20044;-85
2023/05/15 07:26:03;;;;;;;4.57;2.33;;;;;;;21.79;39.08;98874.19;4907015;29;20040;-84
2023/05/15 07:28:28;;;;;;;4.43;2.25;;;;;;;21.98;38.61;98880.72;4921226;29;20044;-83
2023/05/15 07:30:54;;;;;;;3.85;2.10;;;;;;;22.09;38.79;98878.59;4921570;29;20123;-83
2023/05/15 07:33:20;;;;;;;4.15;2.35;;;;;;;22.22;38.75;98876.09;4891309;29;20496;-83
2023/05/15 07:35:45;;;;;;;5.80;2.25;;;;;;;22.41;38.57;98869.34;4906219;29;20456;-80
2023/05/15 07:38:11;;;;;;;6.18;2.17;;;;;;;22.63;38.27;98856.00;4904332;29;20089;-82
2023/05/15 07:40:37;;;;;;;4.63;2.20;;;;;;;22.93;38.03;98859.34;4909152;29;20055;-83
2023/05/15 07:43:03;;;;;;;5.50;2.47;;;;;;;23.29;37.36;98858.34;4922514;29;20044;-82
2023/05/15 07:45:28;;;;;;;6.65;2.17;;;;;;;23.42;37.38;98853.09;4890772;29;20047;-83
2023/05/15 07:47:54;;;;;;;6.18;2.42;;;;;;;23.27;37.21;98844.41;4907749;29;20044;-84
2023/05/15 07:50:20;;;;;;;7.50;2.35;;;;;;;23.25;37.13;98849.13;4906040;29;20044;-81
2023/05/15 07:52:45;;;;;;;4.72;2.30;;;;;;;23.21;37.22;98851.31;4887785;29;20052;-86
2023/05/15 07:55:11;;;;;;;7.47;2.80;;;;;;;23.22;37.08;98844.19;4888293;29;20127;-83
2023/05/15 07:57:37;;;;;;;4.57;2.75;;;;;;;23.41;36.57;98846.13;4902824;29;20118;-84
2023/05/15 08:00:08;;;;;;;6.50;2.65;;;;;;;23.51;36.44;98853.75;4886852;29;20036;-81
2023/05/15 08:02:34;;;;;;;5.65;2.80;;;;;;;23.49;36.53;98855.78;4903353;29;20076;-82
2023/05/15 08:05:00;;;;;;;5.88;2.60;;;;;;;23.83;36.04;98854.06;4919815;29;20036;-82
2023/05/15 08:07:25;;;;;;;3.92;2.53;;;;;;;23.97;35.63;98850.47;4887329;29;20048;-82
2023/05/15 08:09:51;;;;;;;6.93;2.90;;;;;;;23.96;36.07;98866.66;4886508;29;20044;-81
2023/05/15 08:12:20;;;;;;;6.20;2.58;;;;;;;23.83;35.94;98883.38;4886728;29;20048;-81
2023/05/15 08:14:49;;;;;;;4.38;2.28;;;;;;;23.77;36.06;98881.53;4888234;29;20136;-82
2023/05/15 08:17:15;;;;;;;4.78;2.80;;;;;;;23.69;36.06;98863.03;4903056;29;20050;-81
2023/05/15 08:19:43;;;;;;;10.02;3.08;;;;;;;23.70;36.23;98854.03;4918152;29;20123;-81
2023/05/15 08:22:08;;;;;;;7.22;2.50;;;;;;;23.76;36.40;98855.91;4890034;29;20084;-82
2023/05/15 08:24:34;;;;;;;8.18;3.03;;;;;;;23.89;36.17;98861.28;4919113;29;20024;-82
2023/05/15 08:26:59;;;;;;;5.68;2.85;;;;;;;24.07;35.93;98866.06;4920132;29;20036;-81
2023/05/15 08:29:26;;;;;;;5.90;2.90;;;;;;;24.24;35.80;98863.03;4902196;29;20433;-82
2023/05/15 08:31:51;;;;;;;5.00;2.83;;;;;;;24.67;35.24;98868.00;4903889;29;20036;-82
2023/05/15 08:34:17;;;;;;;3.92;2.50;;;;;;;25.03;34.79;98861.41;4896470;29;20028;-82
2023/05/15 08:36:43;;;;;;;6.15;2.65;;;;;;;25.34;34.57;98858.09;4887635;29;20044;-82
2023/05/15 08:39:09;;;;;;;10.55;2.90;;;;;;;25.51;34.45;98860.28;4887540;29;20416;-80
2023/05/15 08:41:41;;;;;;;4.03;2.33;;;;;;;25.79;34.20;98866.16;4901319;29;20044;-82
2023/05/15 08:44:09;;;;;;;6.82;2.25;;;;;;;25.87;34.10;98856.25;4887191;29;20063;-82
2023/05/15 08:46:35;;;;;;;;;;;;;;;25.97;33.40;98848.63;4903269;29;20040;-81
2023/05/15 08:49:29;;;;;;;4.53;2.50;;;;;;;26.14;32.77;98838.22;4917507;29;19918;-81
2023/05/15 08:51:54;;;;;;;7.60;2.63;;;;;;;26.60;31.85;98829.03;4924468;29;20146;-81
2023/05/15 08:54:20;;;;;;;8.30;2.33;;;;;;;26.68;31.22;98828.78;4890222;29;20043;-81
2023/05/15 08:56:46;;;;;;;5.22;2.42;;;;;;;26.90;30.70;98833.75;4904974;29;20082;-80
2023/05/15 08:59:11;;;;;;;6.30;2.50;;;;;;;27.04;30.59;98829.06;4904364;29;20111;-82
2023/05/15 09:01:37;;;;;;;4.90;2.65;;;;;;;27.03;30.60;98840.84;4889854;29;20438;-81
2023/05/15 09:04:03;;;;;;;6.18;2.50;;;;;;;27.15;30.12;98831.03;4920655;29;20032;-81
2023/05/15 09:06:31;;;;;;;5.10;2.42;;;;;;;27.19;30.24;98832.19;4888437;29;20107;-85
2023/05/15 09:08:57;;;;;;;9.18;2.50;;;;;;;27.28;29.66;98835.41;4888525;29;20144;-81
2023/05/15 09:11:23;;;;;;;5.47;2.65;;;;;;;27.32;29.50;98838.50;4905551;29;20499;-81
2023/05/15 09:13:48;;;;;;;11.52;2.85;;;;;;;27.34;29.69;98841.75;4909714;29;20039;-80
2023/05/15 09:16:14;;;;;;;8.55;2.53;;;;;;;27.45;29.42;98843.69;4905502;29;20051;-79
2023/05/15 09:18:40;;;;;;;5.65;2.42;;;;;;;27.35;28.75;98843.41;4906643;29;20039;-88
2023/05/15 09:21:24;;;;;;;11.85;2.28;;;;;;;27.36;29.38;98839.69;4905852;29;20071;-80
2023/05/15 09:23:54;;;;;;;7.03;2.55;;;;;;;27.44;28.07;98840.19;4906409;29;20039;-82
2023/05/15 09:26:21;;;;;;;8.07;2.40;;;;;;;27.48;29.07;98842.44;4890807;29;20036;-81
2023/05/15 09:28:47;;;;;;;8.05;2.33;;;;;;;27.45;28.71;98824.91;4905846;29;20059;-83
2023/05/15 09:31:14;;;;;;;6.03;2.58;;;;;;;27.60;28.79;98821.88;4888884;29;20036;-81
2023/05/15 09:33:41;;;;;;;3.20;1.92;;;;;;;27.76;28.51;98817.75;4888852;29;20040;-81
2023/05/15 09:36:07;;;;;;;4.47;2.27;;;;;;;27.78;28.35;98803.06;4919739;29;20039;-81
2023/05/15 09:38:33;;;;;;;6.90;2.30;;;;;;;27.72;28.79;98803.13;4905450;29;20039;-82
2023/05/15 09:41:03;;;;;;;3.90;2.20;;;;;;;27.69;28.76;98799.06;4904785;29;20152;-82
2023/05/15 09:43:29;;;;;;;6.25;2.28;;;;;;;27.76;28.40;98793.59;4905129;29;20036;-81
2023/05/15 09:45:55;;;;;;;5.88;2.50;;;;;;;27.70;28.80;98794.50;4921025;29;20040;-80
2023/05/15 09:48:20;;;;;;;5.65;2.30;;;;;;;27.54;29.01;98782.56;4920833;29;20118;-81
2023/05/15 09:50:46;;;;;;;3.97;2.30;;;;;;;27.37;28.99;98768.94;4905509;29;20037;-83
2023/05/15 09:53:12;;;;;;;6.07;2.45;;;;;;;27.18;29.04;98762.75;4903375;29;20052;-84
2023/05/15 09:55:38;;;;;;;6.63;2.40;;;;;;;27.05;29.47;98761.06;4903417;29;20115;-82
2023/05/15 09:58:07;;;;;;;6.47;2.40;;;;;;;26.88;29.66;98764.34;4887870;29;20130;-81
2023/05/15 10:00:33;;;;;;;5.88;2.03;;;;;;;26.69;29.69;98760.81;4918970;29;20395;-81
2023/05/15 10:03:03;;;;;;;5.28;2.35;;;;;;;26.74;29.97;98759.31;4903290;29;20044;-80
2023/05/15 10:05:29;;;;;;;7.90;2.63;;;;;;;26.70;30.03;98761.63;4902934;29;20034;-82
2023/05/15 10:07:55;;;;;;;6.43;2.30;;;;;;;26.73;29.86;98758.53;4906869;29;20095;-82
2023/05/15 10:10:21;;;;;;;8.18;2.33;;;;;;;26.66;30.34;98765.78;4923856;29;20028;-85
2023/05/15 10:12:49;;;;;;;5.10;2.67;;;;;;;26.51;29.59;98761.56;4923705;29;20059;-82
2023/05/15 10:15:14;;;;;;;10.38;2.80;;;;;;;26.39;30.02;98749.94;4907493;29;20031;-81
2023/05/15 10:17:40;;;;;;;3.97;2.40;;;;;;;26.48;29.94;98751.31;4907024;29;20051;-81
2023/05/15 10:20:06;;;;;;;5.55;2.53;;;;;;;26.52;29.52;98746.34;4907353;29;20067;-81
2023/05/15 10:22:33;;;;;;;8.52;2.78;;;;;;;26.32;29.89;98741.16;4906858;29;20036;-82
2023/05/15 10:25:07;;;;;;;5.90;2.28;;;;;;;26.22;30.27;98736.31;4892299;29;20423;-82
2023/05/15 10:27:34;;;;;;;4.72;2.55;;;;;;;26.27;30.12;98725.78;4924347;29;20065;-84
2023/05/15 10:30:00;;;;;;;6.43;2.58;;;;;;;26.23;29.94;98737.94;4923695;29;20039;-82
2023/05/15 10:32:26;;;;;;;5.30;2.38;;;;;;;26.33;30.17;98740.94;4894147;29;20051;-84
2023/05/15 10:34:52;;;;;;;5.15;2.55;;;;;;;26.31;30.32;98726.97;4895038;29;20487;-84
2023/05/15 10:37:17;;;;;;;6.50;2.55;;;;;;;26.20;30.55;98735.69;4907172;29;20431;-82
2023/05/15 10:39:43;;;;;;;5.00;2.28;;;;;;;26.43;30.52;98732.41;4907258;29;20043;-81
2023/05/15 10:42:08;;;;;;;5.40;2.38;;;;;;;26.50;30.31;98738.53;4907302;29;20531;-81
2023/05/15 10:44:34;;;;;;;4.72;2.50;;;;;;;26.64;30.28;98725.81;4921961;29;20046;-85
2023/05/15 10:46:59;;;;;;;7.63;2.42;;;;;;;26.75;30.11;98723.50;4923054;29;20048;-81
2023/05/15 10:49:25;;;;;;;5.85;2.58;;;;;;;26.86;30.01;98720.88;4921707;29;20086;-80
2023/05/15 10:51:51;;;;;;;7.35;2.63;;;;;;;26.96;30.16;98724.91;4891940;29;20140;-82
2023/05/15 10:54:17;;;;;;;4.97;2.13;;;;;;;27.04;29.98;98719.22;4923870;29;20032;-83
2023/05/15 10:56:42;;;;;;;4.50;2.50;;;;;;;27.12;29.83;98713.59;4909730;29;20111;-83
2023/05/15 10:59:10;;;;;;;6.35;2.25;;;;;;;27.22;29.92;98710.38;4892447;29;20045;-81
2023/05/15 11:01:36;;;;;;;;;;;;;;;27.21;30.08;98714.09;4909410;29;20088;-81
2023/05/15 11:04:17;;;;;;;5.45;2.28;;;;;;;27.09;29.76;98708.69;4923765;29;19911;-82
2023/05/15 11:06:47;;;;;;;9.73;2.50;;;;;;;26.95;29.83;98713.38;4893791;29;20046;-83
2023/05/15 11:09:35;;;;;;;3.88;2.35;;;;;;;26.92;30.10;98707.66;4894276;29;20106;-84
2023/05/15 11:12:02;;;;;;;7.22;2.42;;;;;;;26.96;30.16;98711.50;4922031;29;20083;-84
2023/05/15 11:14:29;;;;;;;7.63;2.20;;;;;;;27.02;30.13;98706.06;4921385;29;20079;-81
2023/05/15 11:16:54;;;;;;;7.05;2.03;;;;;;;26.89;30.15;98701.69;4906355;29;20039;-81
2023/05/15 11:19:33;;;;;;;5.47;2.10;;;;;;;26.71;29.92;98697.16;4938077;29;20032;-80
2023/05/15 11:22:00;;;;;;;4.70;2.30;;;;;;;26.66;30.12;98704.22;4921709;29;20567;-82
2023/05/15 11:24:47;;;;;;;6.90;2.25;;;;;;;26.62;30.40;98706.50;4937822;29;20032;-79
2023/05/15 11:27:16;;;;;;;4.72;2.17;;;;;;;26.25;30.18;98713.63;4924070;29;20036;-82
2023/05/15 11:30:06;;;;;;;6.72;2.40;;;;;;;26.15;30.42;98714.94;4923182;29;20098;-81
2023/05/15 11:32:50;;;;;;;5.63;2.25;;;;;;;25.78;31.17;98709.44;4940125;29;20032;-79